Time;durP1;ratioP1;P1;durP2;ratioP2;P2;SDS_P1;SDS_P2;PMS_P1;PMS_P2;Temp;Humidity;BMP_temperature;BMP_pressure;BME280_temperature;BME280_humidity;BME280_pressure;Samples;Min_cycle;Max_cycle;Signal;HPM_P1;HPM_P2
2024/01/01 00:00:46;;;;;;;43.00;33.30;;;;;;;;;;5094315;28;20040;-81
2024/01/01 00:03:12;;;;;;;48.15;35.85;;;;;;;;;;5094132;28;20048;-82
2024/01/01 00:05:38;;;;;;;48.95;36.67;;;;;;;;;;5096517;28;20398;-82
2024/01/01 00:08:05;;;;;;;43.05;35.60;;;;;;;;;;5098114;28;20159;-82
2024/01/01 00:10:31;;;;;;;42.22;31.63;;;;;;;;;;5065185;28;20044;-78
2024/01/01 00:12:58;;;;;;;47.30;36.50;;;;;;;;;;5116333;28;20365;-79
2024/01/01 00:15:24;;;;;;;52.25;39.88;;;;;;;;;;5115610;28;20088;-78
2024/01/01 00:17:50;;;;;;;49.75;40.83;;;;;;;;;;5098131;28;20058;-78
2024/01/01 00:20:17;;;;;;;45.45;34.15;;;;;;;;;;5115888;28;20055;-79
2024/01/01 00:22:44;;;;;;;44.22;32.40;;;;;;;;;;5115379;28;20089;-78
2024/01/01 00:25:10;;;;;;;38.67;28.85;;;;;;;;;;5114663;28;20055;-79
2024/01/01 00:27:36;;;;;;;25.05;16.60;;;;;;;;;;5114802;28;20131;-79
2024/01/01 00:30:02;;;;;;;29.65;21.27;;;;;;;;;;5080285;28;20051;-78
2024/01/01 00:32:28;;;;;;;29.05;19.85;;;;;;;;;;5115184;28;20491;-78
2024/01/01 00:34:55;;;;;;;27.38;16.98;;;;;;;;;;5115202;28;20066;-78
2024/01/01 00:37:21;;;;;;;22.15;16.20;;;;;;;;;;5115053;28;20082;-79
2024/01/01 00:39:47;;;;;;;20.90;14.98;;;;;;;;;;5114926;28;20047;-79
2024/01/01 00:42:13;;;;;;;24.98;15.45;;;;;;;;;;5114950;28;20050;-79
2024/01/01 00:44:39;;;;;;;18.90;12.40;;;;;;;;;;5115486;28;20464;-78
2024/01/01 00:47:05;;;;;;;21.55;13.50;;;;;;;;;;5097593;28;20108;-79
2024/01/01 00:49:31;;;;;;;24.25;13.70;;;;;;;;;;5096927;28;20047;-79
2024/01/01 00:51:57;;;;;;;24.25;14.13;;;;;;;;;;5115382;28;20376;-79
2024/01/01 00:54:28;;;;;;;25.40;15.15;;;;;;;;;;5115640;28;20365;-78
2024/01/01 00:56:54;;;;;;;22.98;16.15;;;;;;;;;;5114880;28;20080;-79
2024/01/01 00:59:21;;;;;;;25.70;16.23;;;;;;;;;;5114676;28;20052;-78
2024/01/01 01:01:47;;;;;;;26.17;15.50;;;;;;;;;;5114716;28;20112;-78
2024/01/01 01:04:13;;;;;;;27.33;16.27;;;;;;;;;;5114725;28;20047;-78
2024/01/01 01:06:39;;;;;;;23.50;15.85;;;;;;;;;;5114809;28;20094;-78
2024/01/01 01:09:05;;;;;;;31.30;19.30;;;;;;;;;;5097413;28;20058;-78
2024/01/01 01:11:32;;;;;;;29.20;18.35;;;;;;;;;;5114406;28;20131;-79
2024/01/01 01:13:58;;;;;;;31.08;18.13;;;;;;;;;;5114743;28;20391;-79
2024/01/01 01:16:24;;;;;;;29.38;20.33;;;;;;;;;;5115253;28;20040;-79
2024/01/01 01:18:50;;;;;;;28.10;20.17;;;;;;;;;;5096425;28;20108;-79
2024/01/01 01:21:16;;;;;;;28.75;20.50;;;;;;;;;;5114426;28;20086;-79
2024/01/01 01:23:43;;;;;;;31.63;22.20;;;;;;;;;;5096840;28;20046;-79
2024/01/01 01:26:09;;;;;;;29.85;18.88;;;;;;;;;;5114161;28;20088;-79
2024/01/01 01:28:35;;;;;;;33.63;21.25;;;;;;;;;;5096270;28;20043;-79
2024/01/01 01:31:04;;;;;;;33.53;21.17;;;;;;;;;;5096281;28;20134;-79
2024/01/01 01:33:30;;;;;;;30.80;20.48;;;;;;;;;;5114747;28;20047;-79
2024/01/01 01:35:56;;;;;;;28.02;19.67;;;;;;;;;;5114110;28;20472;-78
2024/01/01 01:38:23;;;;;;;25.90;18.50;;;;;;;;;;5114586;28;20050;-78
2024/01/01 01:40:50;;;;;;;30.13;19.33;;;;;;;;;;5114096;28;20100;-79
2024/01/01 01:43:20;;;;;;;28.63;18.80;;;;;;;;;;5096902;28;20480;-78
2024/01/01 01:45:47;;;;;;;28.10;19.30;;;;;;;;;;5114591;28;20056;-78
2024/01/01 01:48:13;;;;;;;24.17;15.88;;;;;;;;;;5096069;28;20086;-78
2024/01/01 01:50:39;;;;;;;22.67;16.85;;;;;;;;;;5114050;28;20132;-79
2024/01/01 01:53:05;;;;;;;30.30;17.77;;;;;;;;;;5114052;28;20039;-78
2024/01/01 01:55:31;;;;;;;23.40;15.88;;;;;;;;;;5113969;28;20537;-79
2024/01/01 01:57:57;;;;;;;24.63;17.00;;;;;;;;;;5096110;28;20086;-78
2024/01/01 02:00:24;;;;;;;23.15;15.60;;;;;;;;;;5095701;28;20051;-79
2024/01/01 02:02:50;;;;;;;23.05;13.95;;;;;;;;;;5113907;28;20058;-79
2024/01/01 02:05:16;;;;;;;29.17;17.60;;;;;;;;;;5114454;28;20079;-78
2024/01/01 02:07:45;;;;;;;25.23;17.05;;;;;;;;;;5114248;28;20081;-79
2024/01/01 02:10:11;;;;;;;26.15;17.38;;;;;;;;;;5113941;28;20055;-78
2024/01/01 02:12:37;;;;;;;27.75;16.92;;;;;;;;;;5113479;28;20510;-79
2024/01/01 02:15:05;;;;;;;20.65;15.57;;;;;;;;;;5095953;28;20480;-79
2024/01/01 02:17:31;;;;;;;27.48;17.63;;;;;;;;;;5095881;28;20047;-79
2024/01/01 02:19:57;;;;;;;20.45;13.68;;;;;;;;;;5114618;28;20185;-78
2024/01/01 02:22:23;;;;;;;16.55;11.13;;;;;;;;;;5095922;28;20044;-79
2024/01/01 02:24:49;;;;;;;17.27;10.43;;;;;;;;;;5113751;28;20048;-79
2024/01/01 02:27:15;;;;;;;15.05;8.88;;;;;;;;;;5113621;28;20043;-78
2024/01/01 02:29:41;;;;;;;13.80;6.78;;;;;;;;;;5114471;28;20137;-78
2024/01/01 02:32:07;;;;;;;11.65;5.70;;;;;;;;;;5095715;28;20130;-79
2024/01/01 02:34:33;;;;;;;9.80;3.85;;;;;;;;;;5113667;28;20108;-79
2024/01/01 02:36:59;;;;;;;6.93;4.20;;;;;;;;;;5113531;28;20043;-78
2024/01/01 02:39:25;;;;;;;11.43;4.60;;;;;;;;;;5113589;28;20135;-78
2024/01/01 02:41:51;;;;;;;9.38;4.43;;;;;;;;;;5113523;28;20043;-78
2024/01/01 02:44:18;;;;;;;9.38;5.10;;;;;;;;;;5113556;28;20047;-78
2024/01/01 02:46:44;;;;;;;11.88;5.07;;;;;;;;;;5113387;28;20039;-78
2024/01/01 02:49:10;;;;;;;10.18;4.10;;;;;;;;;;5097180;28;20051;-79
2024/01/01 02:51:36;;;;;;;8.63;3.17;;;;;;;;;;5117180;28;20484;-79
2024/01/01 02:54:02;;;;;;;4.85;2.25;;;;;;;;;;5099924;28;20078;-78
2024/01/01 02:56:29;;;;;;;2.83;1.30;;;;;;;;;;5117050;28;20039;-78
2024/01/01 02:58:55;;;;;;;6.65;2.03;;;;;;;;;;5099019;28;20136;-78
2024/01/01 03:01:22;;;;;;;4.65;1.80;;;;;;;;;;5116922;28;20079;-78
2024/01/01 03:03:48;;;;;;;7.60;2.40;;;;;;;;;;5116943;28;20047;-78
2024/01/01 03:06:17;;;;;;;3.45;1.42;;;;;;;;;;5116929;28;20058;-79
2024/01/01 03:08:43;;;;;;;4.63;1.73;;;;;;;;;;5098598;28;20487;-79
2024/01/01 03:11:09;;;;;;;7.50;1.52;;;;;;;;;;5116812;28;20074;-78
2024/01/01 03:13:35;;;;;;;7.25;1.73;;;;;;;;;;5117499;28;20096;-78
2024/01/01 03:16:02;;;;;;;5.20;1.33;;;;;;;;;;5099006;28;20055;-78
2024/01/01 03:18:28;;;;;;;3.95;1.10;;;;;;;;;;5116611;28;20506;-79
2024/01/01 03:20:55;;;;;;;5.05;1.30;;;;;;;;;;5117421;28;20097;-78
2024/01/01 03:23:21;;;;;;;5.57;1.05;;;;;;;;;;5098517;28;20047;-79
2024/01/01 03:25:47;;;;;;;4.55;1.50;;;;;;;;;;5117182;28;20048;-79
2024/01/01 03:28:13;;;;;;;2.15;0.85;;;;;;;;;;5116657;28;20488;-79
2024/01/01 03:30:39;;;;;;;2.83;1.27;;;;;;;;;;5116109;28;20542;-78
2024/01/01 03:33:05;;;;;;;4.55;1.08;;;;;;;;;;5116365;28;20552;-79
2024/01/01 03:35:31;;;;;;;5.13;1.67;;;;;;;;;;5099122;28;20471;-79
2024/01/01 03:37:58;;;;;;;3.63;0.70;;;;;;;;;;5116288;28;20055;-78
2024/01/01 03:40:25;;;;;;;3.45;0.85;;;;;;;;;;5116240;28;20484;-78
2024/01/01 03:42:51;;;;;;;4.65;1.20;;;;;;;;;;5115777;28;20395;-78
2024/01/01 03:45:18;;;;;;;4.13;1.00;;;;;;;;;;5117030;28;20428;-78
2024/01/01 03:47:44;;;;;;;3.90;1.02;;;;;;;;;;5116810;28;20418;-78
2024/01/01 03:50:10;;;;;;;5.28;1.25;;;;;;;;;;5097982;28;20089;-78
2024/01/01 03:52:36;;;;;;;6.25;1.40;;;;;;;;;;5115945;28;20476;-78
2024/01/01 03:55:03;;;;;;;5.05;1.10;;;;;;;;;;5097696;28;20075;-78
2024/01/01 03:57:32;;;;;;;5.22;1.33;;;;;;;;;;5115841;28;20048;-79
2024/01/01 03:59:58;;;;;;;5.95;0.90;;;;;;;;;;5115500;28;20048;-78
2024/01/01 04:02:25;;;;;;;6.35;1.00;;;;;;;;;;5097136;28;20506;-79
2024/01/01 04:04:51;;;;;;;6.72;1.10;;;;;;;;;;5116310;28;20461;-78
2024/01/01 04:07:17;;;;;;;4.72;0.88;;;;;;;;;;5115644;28;20548;-78
2024/01/01 04:09:43;;;;;;;4.38;0.70;;;;;;;;;;5115958;28;20100;-78
2024/01/01 04:12:09;;;;;;;4.88;0.90;;;;;;;;;;5115785;28;20048;-78
2024/01/01 04:14:36;;;;;;;5.60;1.15;;;;;;;;;;5116138;28;20054;-79
2024/01/01 04:17:03;;;;;;;4.10;1.33;;;;;;;;;;5097546;28;20063;-78
2024/01/01 04:19:29;;;;;;;4.07;1.35;;;;;;;;;;5098313;28;20059;-78
2024/01/01 04:21:55;;;;;;;4.93;1.17;;;;;;;;;;5115393;28;20044;-78
2024/01/01 04:24:21;;;;;;;5.15;1.10;;;;;;;;;;5115319;28;20046;-78
2024/01/01 04:26:47;;;;;;;4.43;1.27;;;;;;;;;;5115779;28;20043;-79
2024/01/01 04:29:16;;;;;;;4.13;1.25;;;;;;;;;;5115259;28;20047;-79
2024/01/01 04:31:42;;;;;;;5.50;1.08;;;;;;;;;;5097304;28;20108;-78
2024/01/01 04:34:08;;;;;;;5.32;1.15;;;;;;;;;;5115217;28;20488;-79
2024/01/01 04:36:34;;;;;;;9.48;1.80;;;;;;;;;;5097469;28;20091;-78
2024/01/01 04:39:03;;;;;;;7.53;1.27;;;;;;;;;;5115368;28;20403;-78
2024/01/01 04:41:29;;;;;;;7.03;1.33;;;;;;;;;;5097399;28;20072;-78
2024/01/01 04:43:55;;;;;;;7.97;1.90;;;;;;;;;;5097003;28;20502;-78
2024/01/01 04:46:21;;;;;;;8.75;1.50;;;;;;;;;;5097158;28;20047;-78
2024/01/01 04:48:47;;;;;;;7.68;0.98;;;;;;;;;;5114890;28;20043;-78
2024/01/01 04:51:14;;;;;;;8.00;1.20;;;;;;;;;;5115444;28;20097;-79
2024/01/01 04:53:40;;;;;;;6.53;1.10;;;;;;;;;;5096857;28;20079;-78
2024/01/01 04:56:06;;;;;;;6.20;1.30;;;;;;;;;;5079994;28;20050;-78
2024/01/01 04:58:33;;;;;;;4.47;0.77;;;;;;;;;;5114796;28;20047;-78
2024/01/01 05:01:00;;;;;;;8.65;1.45;;;;;;;;;;5097031;28;20068;-79
2024/01/01 05:03:26;;;;;;;8.73;1.30;;;;;;;;;;5114349;28;20504;-78
2024/01/01 05:05:52;;;;;;;7.40;0.77;;;;;;;;;;5114508;28;20396;-78
2024/01/01 05:08:18;;;;;;;6.20;1.10;;;;;;;;;;5115124;28;20050;-78
2024/01/01 05:10:44;;;;;;;8.02;1.27;;;;;;;;;;5114509;28;20195;-78
2024/01/01 05:13:10;;;;;;;6.53;1.10;;;;;;;;;;5114849;28;20054;-78
2024/01/01 05:15:38;;;;;;;9.98;1.45;;;;;;;;;;5114516;28;20064;-78
2024/01/01 05:18:04;;;;;;;8.05;1.67;;;;;;;;;;5114556;28;20074;-78
2024/01/01 05:20:30;;;;;;;10.25;0.93;;;;;;;;;;5114423;28;20175;-78
2024/01/01 05:22:56;;;;;;;7.28;1.13;;;;;;;;;;5114187;28;20093;-78
2024/01/01 05:25:23;;;;;;;6.05;0.82;;;;;;;;;;5114606;28;20521;-78
2024/01/01 05:27:49;;;;;;;9.27;1.40;;;;;;;;;;5114835;28;20043;-79
2024/01/01 05:30:15;;;;;;;6.32;1.13;;;;;;;;;;5114205;28;20089;-78
2024/01/01 05:32:41;;;;;;;11.98;1.63;;;;;;;;;;5096348;28;20079;-78
2024/01/01 05:35:07;;;;;;;8.88;1.58;;;;;;;;;;5114423;28;20491;-78
2024/01/01 05:37:33;;;;;;;11.15;1.92;;;;;;;;;;5114168;28;20036;-78
2024/01/01 05:40:00;;;;;;;9.57;1.27;;;;;;;;;;5096138;28;20054;-78
2024/01/01 05:42:26;;;;;;;12.60;1.27;;;;;;;;;;5079516;28;20055;-78
2024/01/01 05:44:52;;;;;;;7.82;0.88;;;;;;;;;;5113820;28;20051;-78
2024/01/01 05:47:18;;;;;;;15.30;1.80;;;;;;;;;;5095966;28;20085;-78
2024/01/01 05:49:44;;;;;;;10.70;1.45;;;;;;;;;;5079268;28;20047;-78
2024/01/01 05:52:10;;;;;;;11.88;2.13;;;;;;;;;;5096946;28;20047;-78
2024/01/01 05:54:36;;;;;;;11.93;1.63;;;;;;;;;;5114053;28;20054;-78
2024/01/01 05:57:03;;;;;;;9.10;0.77;;;;;;;;;;5113969;28;20051;-78
2024/01/01 05:59:29;;;;;;;8.70;1.73;;;;;;;;;;5113996;28;20043;-78
2024/01/01 06:01:55;;;;;;;8.88;1.15;;;;;;;;;;5113904;28;20054;-78
2024/01/01 06:04:21;;;;;;;8.90;1.58;;;;;;;;;;5113837;28;20044;-78
2024/01/01 06:06:47;;;;;;;7.68;1.10;;;;;;;;;;5113467;28;20056;-78
2024/01/01 06:09:13;;;;;;;10.23;1.75;;;;;;;;;;5113906;28;20055;-78
2024/01/01 06:11:39;;;;;;;9.35;1.30;;;;;;;;;;5113915;28;20102;-78
2024/01/01 06:14:05;;;;;;;10.25;1.10;;;;;;;;;;5096662;28;20043;-78
2024/01/01 06:16:31;;;;;;;6.72;1.02;;;;;;;;;;5113789;28;20046;-78
2024/01/01 06:18:57;;;;;;;7.78;1.17;;;;;;;;;;5113783;28;20051;-78
2024/01/01 06:21:23;;;;;;;8.15;1.33;;;;;;;;;;5113758;28;20053;-78
2024/01/01 06:23:49;;;;;;;6.65;1.45;;;;;;;;;;5114129;28;20043;-78
2024/01/01 06:26:15;;;;;;;10.43;1.40;;;;;;;;;;5082680;28;20464;-78
2024/01/01 06:28:41;;;;;;;12.77;1.70;;;;;;;;;;5117628;28;20061;-78
2024/01/01 06:31:07;;;;;;;11.27;0.82;;;;;;;;;;5117618;28;20071;-78
2024/01/01 06:33:34;;;;;;;13.13;1.88;;;;;;;;;;5117527;28;20048;-78
2024/01/01 06:36:00;;;;;;;6.22;1.45;;;;;;;;;;5117519;28;20036;-78
2024/01/01 06:38:26;;;;;;;10.27;1.38;;;;;;;;;;5099471;28;20044;-77
2024/01/01 06:40:52;;;;;;;12.88;2.00;;;;;;;;;;5099459;28;20087;-78
2024/01/01 06:43:18;;;;;;;12.48;1.55;;;;;;;;;;5082739;28;20100;-77
2024/01/01 06:45:44;;;;;;;6.90;1.52;;;;;;;;;;5099568;28;20047;-78
2024/01/01 06:48:11;;;;;;;11.57;1.38;;;;;;;;;;5099735;28;20112;-78
2024/01/01 06:50:37;;;;;;;9.18;1.70;;;;;;;;;;5117192;28;20056;-78
2024/01/01 06:53:03;;;;;;;10.70;1.60;;;;;;;;;;5117223;28;20039;-78
2024/01/01 06:55:30;;;;;;;8.88;1.02;;;;;;;;;;5099218;28;20390;-78
2024/01/01 06:57:59;;;;;;;7.65;1.35;;;;;;;;;;5099358;28;20061;-78
2024/01/01 07:00:25;;;;;;;8.00;1.90;;;;;;;;;;5117345;28;20111;-78
2024/01/01 07:02:52;;;;;;;8.05;1.38;;;;;;;;;;5098916;28;20043;-78
2024/01/01 07:05:18;;;;;;;10.13;1.67;;;;;;;;;;5082309;28;20055;-78
2024/01/01 07:07:44;;;;;;;10.90;1.08;;;;;;;;;;5116603;28;20043;-78
2024/01/01 07:10:10;;;;;;;9.77;1.45;;;;;;;;;;5117670;28;20154;-78
2024/01/01 07:12:36;;;;;;;4.15;0.82;;;;;;;;;;5098787;28;20058;-77
2024/01/01 07:15:03;;;;;;;6.57;1.05;;;;;;;;;;5116740;28;20055;-78
2024/01/01 07:17:29;;;;;;;6.32;1.33;;;;;;;;;;5098666;28;20047;-78
2024/01/01 07:19:55;;;;;;;9.63;1.67;;;;;;;;;;5098662;28;20051;-77
2024/01/01 07:22:22;;;;;;;10.13;1.15;;;;;;;;;;5116650;28;20400;-78
2024/01/01 07:24:48;;;;;;;11.98;1.70;;;;;;;;;;5116595;28;20047;-77
2024/01/01 07:27:14;;;;;;;10.73;1.05;;;;;;;;;;5081502;28;20054;-78
2024/01/01 07:29:41;;;;;;;11.43;1.20;;;;;;;;;;5116465;28;20101;-78
2024/01/01 07:32:07;;;;;;;7.85;1.25;;;;;;;;;;5116425;28;20047;-78
2024/01/01 07:34:33;;;;;;;6.78;1.05;;;;;;;;;;5098247;28;20062;-78
2024/01/01 07:37:00;;;;;;;7.43;1.92;;;;;;;;;;5116303;28;20071;-78
2024/01/01 07:39:29;;;;;;;7.53;1.23;;;;;;;;;;5098295;28;20056;-78
2024/01/01 07:41:56;;;;;;;8.07;1.35;;;;;;;;;;5116762;28;20384;-77
2024/01/01 07:44:22;;;;;;;8.48;1.30;;;;;;;;;;5098261;28;20044;-78
2024/01/01 07:46:49;;;;;;;11.27;1.48;;;;;;;;;;5097922;28;20052;-78
2024/01/01 07:49:16;;;;;;;7.45;1.13;;;;;;;;;;5116080;28;20080;-78
2024/01/01 07:51:42;;;;;;;9.90;1.80;;;;;;;;;;5116015;28;20103;-78
2024/01/01 07:54:08;;;;;;;10.23;1.83;;;;;;;;;;5115993;28;20493;-78
2024/01/01 07:56:37;;;;;;;10.02;2.25;;;;;;;;;;5115973;28;20081;-77
2024/01/01 07:59:03;;;;;;;13.15;1.80;;;;;;;;;;5116474;28;20044;-78
2024/01/01 08:01:29;;;;;;;12.02;1.67;;;;;;;;;;5116198;28;20081;-77
2024/01/01 08:03:55;;;;;;;9.35;2.00;;;;;;;;;;5115812;28;20047;-77
2024/01/01 08:06:22;;;;;;;6.53;1.15;;;;;;;;;;5094536;28;20407;-77
2024/01/01 08:08:48;;;;;;;8.30;1.48;;;;;;;;;;5095886;28;20055;-77
2024/01/01 08:11:14;;;;;;;11.55;1.35;;;;;;;;;;5077485;28;20131;-77
2024/01/01 08:13:40;;;;;;;7.30;1.85;;;;;;;;;;5096001;28;20135;-77
2024/01/01 08:16:06;;;;;;;10.25;2.03;;;;;;;;;;5095233;28;20036;-77
2024/01/01 08:18:32;;;;;;;10.18;1.98;;;;;;;;;;5095453;28;20048;-77
2024/01/01 08:20:58;;;;;;;9.90;1.70;;;;;;;;;;5095142;28;20381;-77
2024/01/01 08:23:24;;;;;;;8.60;1.50;;;;;;;;;;5095931;28;20048;-77
2024/01/01 08:25:50;;;;;;;8.32;1.67;;;;;;;;;;5094964;28;20099;-77
2024/01/01 08:28:17;;;;;;;10.73;1.58;;;;;;;;;;5077067;28;20044;-76
2024/01/01 08:30:43;;;;;;;9.45;1.40;;;;;;;;;;5094928;28;20122;-76
2024/01/01 08:33:09;;;;;;;8.90;1.25;;;;;;;;;;5094200;28;20079;-76
2024/01/01 08:35:35;;;;;;;9.40;1.23;;;;;;;;;;5094817;28;20055;-76
2024/01/01 08:38:02;;;;;;;8.43;1.67;;;;;;;;;;5094719;28;20043;-76
2024/01/01 08:40:28;;;;;;;7.10;1.38;;;;;;;;;;5094044;28;20056;-76
2024/01/01 08:42:54;;;;;;;6.97;1.35;;;;;;;;;;5094616;28;20047;-77
2024/01/01 08:45:20;;;;;;;6.10;1.48;;;;;;;;;;5094353;28;20527;-77
2024/01/01 08:47:47;;;;;;;8.98;1.73;;;;;;;;;;5092720;28;20040;-76
2024/01/01 08:50:14;;;;;;;8.75;1.40;;;;;;;;;;5094584;28;20048;-76
2024/01/01 08:52:40;;;;;;;9.68;1.50;;;;;;;;;;5094731;28;20047;-76
2024/01/01 08:55:06;;;;;;;8.43;1.48;;;;;;;;;;5094479;28;20044;-77
2024/01/01 08:57:32;;;;;;;10.18;1.50;;;;;;;;;;5093780;28;20052;-77
2024/01/01 08:59:58;;;;;;;7.25;1.35;;;;;;;;;;5094380;28;20047;-77
2024/01/01 09:02:25;;;;;;;7.07;1.50;;;;;;;;;;5094371;28;20047;-76
2024/01/01 09:04:51;;;;;;;8.00;1.42;;;;;;;;;;5093379;28;20047;-76
2024/01/01 09:07:18;;;;;;;10.02;1.05;;;;;;;;;;5093019;28;20059;-77
2024/01/01 09:09:44;;;;;;;7.03;1.55;;;;;;;;;;5094198;28;20048;-76
2024/01/01 09:12:10;;;;;;;6.53;1.23;;;;;;;;;;5093035;28;20507;-76
2024/01/01 09:14:36;;;;;;;9.50;1.10;;;;;;;;;;5093091;28;20069;-76
2024/01/01 09:17:07;;;;;;;6.85;1.08;;;;;;;;;;5094143;28;20040;-76
2024/01/01 09:19:33;;;;;;;10.25;1.40;;;;;;;;;;5094736;28;20060;-76
2024/01/01 09:22:00;;;;;;;6.03;1.38;;;;;;;;;;5094575;28;20050;-76
2024/01/01 09:24:26;;;;;;;4.20;1.00;;;;;;;;;;5093649;28;20122;-76
2024/01/01 09:26:52;;;;;;;6.60;1.33;;;;;;;;;;5094449;28;20441;-76
2024/01/01 09:29:18;;;;;;;3.65;1.13;;;;;;;;;;5093006;28;20054;-76
2024/01/01 09:31:44;;;;;;;6.13;0.77;;;;;;;;;;5075749;28;20044;-76
2024/01/01 09:34:10;;;;;;;6.53;1.10;;;;;;;;;;5093767;28;20066;-76
2024/01/01 09:36:37;;;;;;;5.70;1.05;;;;;;;;;;5093930;28;20043;-76
2024/01/01 09:39:04;;;;;;;6.35;1.45;;;;;;;;;;5093895;28;20048;-76
2024/01/01 09:41:30;;;;;;;7.35;1.38;;;;;;;;;;5094662;28;20048;-77
2024/01/01 09:43:56;;;;;;;7.65;1.42;;;;;;;;;;5093743;28;20053;-77
2024/01/01 09:46:23;;;;;;;8.07;1.48;;;;;;;;;;5093740;28;20446;-77
2024/01/01 09:48:49;;;;;;;11.75;1.77;;;;;;;;;;5094416;28;20058;-76
2024/01/01 09:51:15;;;;;;;6.90;1.48;;;;;;;;;;5093757;28;20160;-76
2024/01/01 09:53:45;;;;;;;9.57;1.35;;;;;;;;;;5093724;28;20048;-77
2024/01/01 09:56:11;;;;;;;8.05;1.50;;;;;;;;;;5093668;28;20048;-81
2024/01/01 09:58:41;;;;;;;13.52;2.08;;;;;;;;;;5094304;28;20048;-83
2024/01/01 10:01:19;;;;;;;5.82;1.45;;;;;;;;;;5097679;28;20051;-79
2024/01/01 10:04:01;;;;;;;11.15;1.83;;;;;;;;;;5098387;28;20048;-78
2024/01/01 10:06:28;;;;;;;4.80;1.30;;;;;;;;;;5107262;28;20069;-78
2024/01/01 10:09:05;;;;;;;11.98;2.78;;;;;;;;;;5117751;28;20560;-78
2024/01/01 10:11:31;;;;;;;10.40;2.13;;;;;;;;;;5100078;28;20475;-79
2024/01/01 10:14:03;;;;;;;6.57;2.05;;;;;;;;;;5099965;28;20074;-78
2024/01/01 10:16:30;;;;;;;6.47;1.98;;;;;;;;;;5100671;28;20049;-78
2024/01/01 10:18:57;;;;;;;9.43;2.35;;;;;;;;;;5117950;28;20551;-78
2024/01/01 10:21:38;;;;;;;10.40;1.92;;;;;;;;;;5118362;28;20202;-77
2024/01/01 10:24:15;;;;;;;6.13;2.17;;;;;;;;;;5118190;28;20392;-77
2024/01/01 10:26:48;;;;;;;5.88;1.65;;;;;;;;;;5099890;28;20052;-77
2024/01/01 10:29:15;;;;;;;7.38;1.50;;;;;;;;;;5082853;28;20055;-78
2024/01/01 10:31:50;;;;;;;9.70;1.27;;;;;;;;;;5117581;28;20043;-78
2024/01/01 10:34:16;;;;;;;;;;;;;;;;;;5084089;28;20047;-79
2024/01/01 10:36:43;;;;;;;11.98;2.22;;;;;;;;;;5117530;28;19927;-78
2024/01/01 10:39:10;;;;;;;8.82;1.20;;;;;;;;;;5117483;28;20043;-77
2024/01/01 10:41:36;;;;;;;4.97;0.80;;;;;;;;;;5117439;28;20048;-78
2024/01/01 10:44:03;;;;;;;6.88;1.13;;;;;;;;;;5099050;28;20079;-78
2024/01/01 10:46:38;;;;;;;7.05;1.10;;;;;;;;;;5117238;28;20050;-79
2024/01/01 10:49:06;;;;;;;4.88;0.77;;;;;;;;;;5099056;28;20058;-78
2024/01/01 10:51:50;;;;;;;4.53;0.90;;;;;;;;;;5117223;28;20081;-79
2024/01/01 10:54:22;;;;;;;6.50;1.17;;;;;;;;;;5117255;28;20044;-79
2024/01/01 10:56:57;;;;;;;9.02;1.00;;;;;;;;;;5099196;28;20138;-80
2024/01/01 10:59:26;;;;;;;6.25;1.10;;;;;;;;;;5117195;28;20044;-79
2024/01/01 11:01:53;;;;;;;4.93;1.10;;;;;;;;;;5117316;28;20126;-78
2024/01/01 11:04:20;;;;;;;8.23;1.38;;;;;;;;;;5117288;28;20044;-78
2024/01/01 11:06:46;;;;;;;7.60;1.35;;;;;;;;;;5116984;28;20131;-78
2024/01/01 11:09:21;;;;;;;7.50;1.17;;;;;;;;;;5116807;28;20059;-78
2024/01/01 11:11:51;;;;;;;8.18;1.38;;;;;;;;;;5117267;28;20042;-78
2024/01/01 11:14:41;;;;;;;11.65;1.30;;;;;;;;;;5099035;28;20082;-78
2024/01/01 11:17:09;;;;;;;6.93;1.25;;;;;;;;;;5117644;28;20048;-78
2024/01/01 11:19:35;;;;;;;7.53;1.90;;;;;;;;;;5098495;28;20058;-77
2024/01/01 11:22:20;;;;;;;8.00;1.98;;;;;;;;;;5117528;28;20050;-77
2024/01/01 11:24:47;;;;;;;8.40;2.00;;;;;;;;;;5116657;28;20040;-77
2024/01/01 11:27:25;;;;;;;8.43;1.92;;;;;;;;;;5117063;28;20122;-76
2024/01/01 11:29:51;;;;;;;7.95;1.98;;;;;;;;;;5098453;28;20491;-78
2024/01/01 11:32:22;;;;;;;5.82;1.10;;;;;;;;;;5116559;28;20087;-77
2024/01/01 11:35:07;;;;;;;7.60;1.40;;;;;;;;;;5098707;28;20123;-77
2024/01/01 11:37:33;;;;;;;11.80;1.88;;;;;;;;;;5116339;28;20044;-76
2024/01/01 11:40:04;;;;;;;5.85;0.70;;;;;;;;;;5116384;28;20047;-76
2024/01/01 11:42:30;;;;;;;4.93;0.70;;;;;;;;;;5117400;28;20070;-77
2024/01/01 11:45:25;;;;;;;3.92;0.75;;;;;;;;;;5116233;28;20047;-76
2024/01/01 11:47:51;;;;;;;7.57;0.57;;;;;;;;;;5076552;28;20056;-77
2024/01/01 11:50:17;;;;;;;7.68;1.30;;;;;;;;;;5116676;28;20052;-76
2024/01/01 11:52:43;;;;;;;7.25;0.73;;;;;;;;;;5098064;28;20048;-76
2024/01/01 11:55:09;;;;;;;6.97;0.90;;;;;;;;;;5098922;28;20423;-77
2024/01/01 11:57:36;;;;;;;5.35;3.50;;;;;;;;;;5116808;28;20039;-77
2024/01/01 12:00:02;;;;;;;4.38;0.52;;;;;;;;;;5116499;28;20083;-77
2024/01/01 12:02:28;;;;;;;2.92;0.52;;;;;;;;;;5115834;28;20047;-77
2024/01/01 12:04:55;;;;;;;5.05;0.60;;;;;;;;;;5115773;28;20050;-77
2024/01/01 12:07:27;;;;;;;4.18;0.65;;;;;;;;;;5116194;28;20055;-77
2024/01/01 12:10:06;;;;;;;4.53;0.75;;;;;;;;;;5098053;28;20083;-78
2024/01/01 12:12:33;;;;;;;5.50;0.40;;;;;;;;;;5116103;28;20048;-77
2024/01/01 12:15:12;;;;;;;4.75;0.50;;;;;;;;;;5115629;28;20044;-77
2024/01/01 12:17:50;;;;;;;6.75;0.60;;;;;;;;;;5116395;28;20085;-77
2024/01/01 12:20:17;;;;;;;7.40;0.82;;;;;;;;;;5097593;28;20047;-77
2024/01/01 12:22:43;;;;;;;3.28;0.40;;;;;;;;;;5114426;28;20048;-78
2024/01/01 12:25:16;;;;;;;3.63;0.40;;;;;;;;;;5115489;28;20160;-77
2024/01/01 12:27:43;;;;;;;6.28;0.40;;;;;;;;;;5115595;28;20380;-78
2024/01/01 12:30:09;;;;;;;5.03;0.50;;;;;;;;;;5115833;28;20050;-78
2024/01/01 12:32:35;;;;;;;5.47;0.65;;;;;;;;;;5115562;28;20462;-78
2024/01/01 12:35:01;;;;;;;4.70;0.50;;;;;;;;;;5115196;28;20100;-77
2024/01/01 12:37:27;;;;;;;8.23;0.85;;;;;;;;;;5115186;28;20051;-79
2024/01/01 12:39:53;;;;;;;6.47;0.82;;;;;;;;;;5096932;28;20039;-78
2024/01/01 12:42:24;;;;;;;6.05;0.75;;;;;;;;;;5142002;27;1263425;-78
2024/01/01 12:44:51;;;;;;;5.90;0.50;;;;;;;;;;5152799;27;20145;-77
2024/01/01 12:47:17;;;;;;;4.32;0.52;;;;;;;;;;5152732;27;20047;-78
2024/01/01 12:49:43;;;;;;;7.43;1.02;;;;;;;;;;5158312;27;20114;-78
2024/01/01 12:52:09;;;;;;;4.90;0.40;;;;;;;;;;5129011;27;20042;-77
2024/01/01 12:54:35;;;;;;;4.40;0.50;;;;;;;;;;5132358;27;20490;-79
2024/01/01 12:57:01;;;;;;;8.75;1.30;;;;;;;;;;5133125;27;20531;-78
2024/01/01 12:59:28;;;;;;;7.93;0.93;;;;;;;;;;5133710;27;20046;-78
2024/01/01 13:01:54;;;;;;;4.00;0.60;;;;;;;;;;5147900;27;20073;-80
2024/01/01 13:04:20;;;;;;;4.70;0.63;;;;;;;;;;5151772;27;20072;-80
2024/01/01 13:06:46;;;;;;;6.10;0.90;;;;;;;;;;5151630;27;20545;-80
2024/01/01 13:09:14;;;;;;;7.13;0.68;;;;;;;;;;5151806;27;20371;-79
2024/01/01 13:11:41;;;;;;;9.35;0.70;;;;;;;;;;5131791;27;20050;-78
2024/01/01 13:14:07;;;;;;;5.05;0.50;;;;;;;;;;5132765;27;20042;-78
2024/01/01 13:16:33;;;;;;;4.03;0.47;;;;;;;;;;5151351;27;20113;-78
2024/01/01 13:18:59;;;;;;;6.03;0.60;;;;;;;;;;5151409;27;20039;-79
2024/01/01 13:21:26;;;;;;;5.13;0.70;;;;;;;;;;5149956;27;20061;-79
2024/01/01 13:23:52;;;;;;;4.63;0.68;;;;;;;;;;5150966;27;20045;-79
2024/01/01 13:26:18;;;;;;;5.65;1.00;;;;;;;;;;5151301;27;20075;-79
2024/01/01 13:28:44;;;;;;;5.43;0.60;;;;;;;;;;5133162;27;20042;-79
2024/01/01 13:31:10;;;;;;;6.22;0.77;;;;;;;;;;5150737;27;20466;-79
2024/01/01 13:33:36;;;;;;;6.25;0.55;;;;;;;;;;5150053;27;20538;-79
2024/01/01 13:36:03;;;;;;;12.43;4.60;;;;;;;;;;5151021;27;20035;-79
2024/01/01 13:38:29;;;;;;;14.32;7.75;;;;;;;;;;5151214;27;20442;-79
2024/01/01 13:40:55;;;;;;;9.23;2.20;;;;;;;;;;5150362;27;20054;-79
2024/01/01 13:43:21;;;;;;;7.05;0.73;;;;;;;;;;5132007;27;20043;-79
2024/01/01 13:45:47;;;;;;;6.90;0.50;;;;;;;;;;5132636;27;20471;-79
2024/01/01 13:48:14;;;;;;;9.35;1.08;;;;;;;;;;5149249;27;20043;-79
2024/01/01 13:50:40;;;;;;;4.07;0.60;;;;;;;;;;5150355;27;20112;-79
2024/01/01 13:53:06;;;;;;;6.30;0.70;;;;;;;;;;5140618;27;20047;-79
2024/01/01 13:55:33;;;;;;;5.38;0.52;;;;;;;;;;5101840;27;20047;-78
2024/01/01 13:58:01;;;;;;;9.93;0.63;;;;;;;;;;5118080;27;20471;-78
2024/01/01 14:00:27;;;;;;;5.43;0.60;;;;;;;;;;5136116;27;20111;-78
2024/01/01 14:02:54;;;;;;;7.05;1.08;;;;;;;;;;5117315;27;20039;-78
2024/01/01 14:05:20;;;;;;;10.82;1.10;;;;;;;;;;5136556;27;20398;-78
2024/01/01 14:07:48;;;;;;;6.95;0.82;;;;;;;;;;5144953;27;20141;-79
2024/01/01 14:10:15;;;;;;;6.78;0.98;;;;;;;;;;5137511;27;20057;-79
2024/01/01 14:12:41;;;;;;;6.25;0.75;;;;;;;;;;5102136;27;20051;-79
2024/01/01 14:15:08;;;;;;;10.80;1.00;;;;;;;;;;5119170;27;20039;-79
2024/01/01 14:17:34;;;;;;;10.32;1.20;;;;;;;;;;5137346;27;20042;-79
2024/01/01 14:20:00;;;;;;;7.55;1.00;;;;;;;;;;5118850;27;20046;-78
2024/01/01 14:22:26;;;;;;;5.78;1.08;;;;;;;;;;5137251;27;20047;-79
2024/01/01 14:24:52;;;;;;;8.10;1.48;;;;;;;;;;5137154;27;20064;-80
2024/01/01 14:27:19;;;;;;;5.68;1.08;;;;;;;;;;5119268;27;20043;-79
2024/01/01 14:29:45;;;;;;;10.52;1.13;;;;;;;;;;5137066;27;20051;-79
2024/01/01 14:32:14;;;;;;;9.63;1.00;;;;;;;;;;5118679;27;20152;-79
2024/01/01 14:34:40;;;;;;;7.95;0.93;;;;;;;;;;5136980;27;20075;-80